Time;durP1;ratioP1;P1;durP2;ratioP2;P2;SDS_P1;SDS_P2;PMS_P1;PMS_P2;Temp;Humidity;BMP_temperature;BMP_pressure;BME280_temperature;BME280_humidity;BME280_pressure;Samples;Min_cycle;Max_cycle;Signal;HPM_P1;HPM_P2
2021/09/27 00:00:24;;;;;;;12.85;11.40;;;;;;;15.18;92.93;100905.25;698009;28;1087;-57
2021/09/27 00:00:49;;;;;;;12.93;11.63;;;;;;;15.23;92.12;100916.56;697390;28;1027;-56
2021/09/27 00:01:12;;;;;;;12.50;11.15;;;;;;;15.27;92.17;100907.69;696877;28;1074;-53
2021/09/27 00:01:33;;;;;;;12.80;11.50;;;;;;;15.21;92.50;100910.44;696458;28;4778;-55
2021/09/27 00:01:53;;;;;;;12.93;11.63;;;;;;;15.18;92.94;100914.94;697077;28;1226;-56
2021/09/27 00:02:13;;;;;;;13.02;11.63;;;;;;;15.17;92.70;100911.41;697616;28;1058;-56
2021/09/27 00:02:34;;;;;;;12.97;11.53;;;;;;;15.17;92.36;100915.81;698049;28;1093;-54
2021/09/27 00:02:55;;;;;;;12.65;11.35;;;;;;;15.17;92.46;100913.19;697890;28;1246;-54
2021/09/27 00:03:15;;;;;;;12.80;11.50;;;;;;;15.21;92.35;100915.72;697782;28;1097;-55
2021/09/27 00:03:37;;;;;;;12.80;11.50;;;;;;;15.30;92.04;100910.28;697496;28;1222;-54
2021/09/27 00:03:57;;;;;;;12.05;10.85;;;;;;;15.38;91.49;100911.88;697257;28;1512;-53
2021/09/27 00:04:18;;;;;;;12.40;11.10;;;;;;;15.34;91.46;100908.44;697553;28;4490;-53
2021/09/27 00:04:38;;;;;;;12.88;11.00;;;;;;;15.37;91.33;100904.84;697610;28;3511;-56
2021/09/27 00:04:59;;;;;;;13.43;11.10;;;;;;;15.37;91.38;100910.13;696916;28;1511;-55
2021/09/27 00:05:20;;;;;;;12.23;10.95;;;;;;;15.37;91.21;100910.13;697904;28;1404;-57
2021/09/27 00:05:41;;;;;;;12.50;11.13;;;;;;;15.33;91.46;100910.19;696491;28;1461;-56
2021/09/27 00:06:02;;;;;;;12.02;10.77;;;;;;;15.39;91.06;100908.34;697289;28;1175;-52
2021/09/27 00:06:23;;;;;;;12.10;10.80;;;;;;;15.41;91.62;100911.78;697423;28;1106;-54
2021/09/27 00:06:43;;;;;;;12.40;11.17;;;;;;;15.35;92.15;100906.66;696648;28;1411;-53
2021/09/27 00:07:04;;;;;;;12.45;11.15;;;;;;;15.31;92.34;100912.00;697530;28;1044;-53
2021/09/27 00:07:27;;;;;;;13.40;12.00;;;;;;;15.27;92.32;100910.34;694901;28;4529;-53
2021/09/27 00:07:48;;;;;;;13.38;11.98;;;;;;;15.23;92.09;100903.41;693668;28;952;-55
2021/09/27 00:08:08;;;;;;;12.80;11.50;;;;;;;15.17;92.83;100907.91;694894;28;2956;-52
2021/09/27 00:08:29;;;;;;;13.30;11.90;;;;;;;15.13;92.71;100910.63;694282;28;3478;-52
2021/09/27 00:08:49;;;;;;;13.05;11.65;;;;;;;15.12;92.63;100908.00;693931;28;1392;-56
2021/09/27 00:09:10;;;;;;;12.60;11.17;;;;;;;15.17;92.25;100907.91;694999;28;1155;-55
2021/09/27 00:09:33;;;;;;;12.20;10.95;;;;;;;15.23;91.96;100906.03;694614;28;1455;-53
2021/09/27 00:09:54;;;;;;;11.98;10.73;;;;;;;15.27;91.72;100899.81;693674;28;1110;-54
2021/09/27 00:10:19;;;;;;;13.00;11.35;;;;;;;15.28;91.82;100906.78;694694;28;4341;-57
2021/09/27 00:10:42;;;;;;;12.50;11.05;;;;;;;15.33;91.50;100904.94;698293;28;2121;-55
2021/09/27 00:11:09;;;;;;;12.38;11.18;;;;;;;15.31;91.80;100906.75;697573;28;1105;-53
2021/09/27 00:11:30;;;;;;;12.93;11.55;;;;;;;15.24;92.33;100912.16;696293;28;3428;-53
2021/09/27 00:11:50;;;;;;;12.60;11.30;;;;;;;15.21;92.33;100902.53;696739;28;1023;-57
2021/09/27 00:12:11;;;;;;;12.30;11.03;;;;;;;15.20;91.95;100907.84;696849;28;1506;-53
2021/09/27 00:12:31;;;;;;;11.90;10.70;;;;;;;15.23;92.05;100913.94;697467;28;1158;-54
2021/09/27 00:12:53;;;;;;;12.13;10.93;;;;;;;15.23;91.95;100913.94;698049;28;1319;-56
2021/09/27 00:13:14;;;;;;;12.05;10.80;;;;;;;15.31;91.84;100905.84;697261;28;4824;-56
2021/09/27 00:13:39;;;;;;;12.02;10.82;;;;;;;15.28;91.88;100909.41;694029;28;1094;-56
2021/09/27 00:14:02;;;;;;;12.57;11.35;;;;;;;15.26;91.81;100905.97;694850;28;1129;-56
2021/09/27 00:14:22;;;;;;;13.18;11.88;;;;;;;15.22;92.45;100906.06;694509;28;1991;-57
2021/09/27 00:14:43;;;;;;;12.80;11.50;;;;;;;15.18;92.37;100913.16;693421;28;3992;-56
2021/09/27 00:15:07;;;;;;;12.13;10.93;;;;;;;15.14;92.73;100909.69;694933;28;1019;-57
2021/09/27 00:15:33;;;;;;;13.48;11.63;;;;;;;15.13;92.57;100910.63;694439;28;1269;-55
2021/09/27 00:15:56;;;;;;;13.55;11.18;;;;;;;15.12;92.83;100913.28;694376;28;1072;-56
2021/09/27 00:16:18;;;;;;;12.65;11.35;;;;;;;15.12;92.45;100910.66;694785;28;4946;-57
2021/09/27 00:16:39;;;;;;;12.18;10.93;;;;;;;15.09;93.14;100908.94;694413;28;1067;-56
2021/09/27 00:17:00;;;;;;;12.88;11.57;;;;;;;15.08;93.19;100908.97;694661;28;1165;-52
2021/09/27 00:17:20;;;;;;;12.70;11.40;;;;;;;15.08;93.22;100914.25;694792;28;1130;-53
2021/09/27 00:17:41;;;;;;;12.80;11.40;;;;;;;15.04;93.51;100908.16;693060;28;3222;-55
2021/09/27 00:18:02;;;;;;;13.87;11.83;;;;;;;15.02;93.52;100911.72;694573;28;1225;-56
2021/09/27 00:18:22;;;;;;;13.20;11.80;;;;;;;15.03;93.18;100909.03;694050;28;2002;-52
2021/09/27 00:18:43;;;;;;;12.77;11.57;;;;;;;15.01;93.39;100909.97;694259;28;1545;-57
2021/09/27 00:19:03;;;;;;;12.80;11.50;;;;;;;14.98;93.42;100909.16;694074;28;1790;-53
2021/09/27 00:19:24;;;;;;;12.70;11.27;;;;;;;14.95;93.76;100909.22;694159;28;4306;-52
2021/09/27 00:19:45;;;;;;;12.70;11.27;;;;;;;14.94;93.56;100901.34;693972;28;991;-52
2021/09/27 00:20:06;;;;;;;12.80;11.40;;;;;;;14.92;93.63;100906.59;694231;28;2883;-54
2021/09/27 00:20:27;;;;;;;12.82;11.50;;;;;;;14.87;94.20;100905.84;691546;28;1197;-54
2021/09/27 00:20:51;;;;;;;13.15;11.75;;;;;;;14.92;93.35;100906.59;690875;28;3565;-57
2021/09/27 00:21:21;;;;;;;13.32;11.73;;;;;;;14.93;93.56;100907.50;690990;28;1288;-52
2021/09/27 00:21:42;;;;;;;12.65;11.32;;;;;;;14.93;93.72;100902.22;693762;28;1428;-55
2021/09/27 00:22:05;;;;;;;12.60;11.30;;;;;;;14.91;94.00;100904.91;694465;28;954;-55
2021/09/27 00:22:25;;;;;;;13.00;11.70;;;;;;;14.94;93.28;100909.25;694701;28;4300;-55
2021/09/27 00:22:48;;;;;;;14.02;12.00;;;;;;;14.95;93.68;100906.56;694050;28;1189;-54
2021/09/27 00:23:09;;;;;;;13.93;12.05;;;;;;;14.92;94.07;100909.25;694975;28;1070;-57
2021/09/27 00:23:32;;;;;;;13.40;12.00;;;;;;;14.91;94.18;100907.53;695066;28;1206;-53
2021/09/27 00:23:53;;;;;;;13.10;11.80;;;;;;;14.89;94.24;100906.66;694280;28;3587;-52
2021/09/27 00:24:13;;;;;;;13.50;11.53;;;;;;;14.88;94.05;100902.28;694496;28;1150;-57
2021/09/27 00:24:34;;;;;;;12.98;11.45;;;;;;;14.87;94.26;100910.22;694041;28;1810;-55
2021/09/27 00:24:54;;;;;;;13.05;11.70;;;;;;;14.86;94.37;100903.25;694831;28;1182;-52
2021/09/27 00:25:22;;;;;;;13.85;11.80;;;;;;;14.87;93.78;100910.22;694482;28;4334;-54
2021/09/27 00:25:43;;;;;;;12.82;11.48;;;;;;;14.92;93.23;100906.59;694389;28;1992;-52
2021/09/27 00:26:05;;;;;;;12.40;11.10;;;;;;;15.03;92.85;100905.56;694785;28;1163;-53
2021/09/27 00:26:27;;;;;;;12.75;11.13;;;;;;;14.99;93.32;100910.00;696610;28;1121;-51
2021/09/27 00:26:48;;;;;;;13.55;11.27;;;;;;;14.96;93.56;100910.91;696087;28;3220;-57
2021/09/27 00:27:08;;;;;;;12.97;11.57;;;;;;;14.94;93.59;100911.88;693710;28;1955;-56
2021/09/27 00:27:28;;;;;;;13.43;12.02;;;;;;;14.90;93.88;100911.06;691649;28;2123;-55
2021/09/27 00:27:49;;;;;;;13.20;11.80;;;;;;;14.86;94.17;100922.53;691260;28;1253;-56
2021/09/27 00:28:10;;;;;;;13.27;11.82;;;;;;;14.87;93.88;100910.22;692275;28;1079;-55
2021/09/27 00:28:30;;;;;;;12.68;11.38;;;;;;;14.98;93.26;100911.78;691417;28;4305;-53
2021/09/27 00:28:50;;;;;;;13.83;11.10;;;;;;;14.93;93.61;100910.97;691492;28;1199;-54
2021/09/27 00:29:11;;;;;;;13.32;11.88;;;;;;;14.93;93.71;100912.75;695024;28;1134;-54
2021/09/27 00:29:34;;;;;;;13.13;11.70;;;;;;;14.91;93.79;100915.44;694642;28;1413;-56
2021/09/27 00:29:54;;;;;;;13.18;11.73;;;;;;;14.92;93.40;100914.50;694578;28;1118;-55
2021/09/27 00:30:17;;;;;;;12.88;11.48;;;;;;;15.04;92.96;100920.47;694992;28;3300;-54
2021/09/27 00:30:39;;;;;;;13.70;12.20;;;;;;;15.01;93.12;100925.75;693746;28;1137;-56
2021/09/27 00:30:59;;;;;;;13.02;11.63;;;;;;;15.05;92.47;100920.44;694714;28;1247;-55
2021/09/27 00:31:20;;;;;;;12.83;11.53;;;;;;;15.04;93.18;100917.81;694391;28;4333;-56
2021/09/27 00:31:42;;;;;;;12.75;11.45;;;;;;;15.03;93.13;100921.34;694466;28;1372;-56
2021/09/27 00:32:03;;;;;;;12.60;11.38;;;;;;;15.04;92.62;100923.94;694556;28;1051;-55
2021/09/27 00:32:23;;;;;;;12.73;11.43;;;;;;;15.04;92.83;100920.47;694972;28;1003;-53
2021/09/27 00:32:44;;;;;;;13.77;11.90;;;;;;;15.02;93.37;100914.34;693843;28;1111;-54
2021/09/27 00:33:05;;;;;;;13.77;12.35;;;;;;;15.00;93.24;100917.00;692084;28;1166;-55
2021/09/27 00:33:26;;;;;;;12.80;11.50;;;;;;;14.96;93.63;100918.81;691327;28;3382;-55
2021/09/27 00:33:48;;;;;;;12.45;11.18;;;;;;;14.92;93.90;100924.19;690462;28;1386;-53
2021/09/27 00:34:09;;;;;;;13.27;11.88;;;;;;;14.88;94.07;100922.50;689459;28;1728;-57
2021/09/27 00:34:29;;;;;;;14.30;12.10;;;;;;;14.86;93.53;100922.53;693509;28;4555;-53
2021/09/27 00:34:49;;;;;;;14.43;11.82;;;;;;;14.89;93.26;100919.84;693530;28;948;-52
2021/09/27 00:35:13;;;;;;;12.63;11.03;;;;;;;14.92;93.67;100914.50;695390;28;1266;-53
2021/09/27 00:35:36;;;;;;;13.45;11.40;;;;;;;14.94;93.32;100919.78;696267;28;1242;-55
2021/09/27 00:35:57;;;;;;;12.25;10.95;;;;;;;14.92;93.80;100914.50;697587;28;1277;-57
2021/09/27 00:36:18;;;;;;;12.90;11.50;;;;;;;14.90;93.91;100913.69;697597;28;3157;-56
2021/09/27 00:36:38;;;;;;;12.57;11.27;;;;;;;14.90;93.52;100921.56;697065;28;3432;-54
2021/09/27 00:36:59;;;;;;;13.20;11.67;;;;;;;14.91;93.27;100918.06;696921;28;1215;-55
2021/09/27 00:37:19;;;;;;;12.57;11.20;;;;;;;14.91;93.91;100915.44;696970;28;4333;-56
2021/09/27 00:37:40;;;;;;;13.20;11.43;;;;;;;14.85;93.98;100912.88;697040;28;1067;-53
2021/09/27 00:38:01;;;;;;;12.90;11.45;;;;;;;14.82;94.48;100924.34;698256;28;1457;-56
2021/09/27 00:38:25;;;;;;;12.52;11.23;;;;;;;14.84;93.86;100921.66;698446;28;1918;-57
2021/09/27 00:38:49;;;;;;;12.25;10.95;;;;;;;14.94;93.07;100919.78;697550;28;1097;-53
2021/09/27 00:39:09;;;;;;;12.45;11.00;;;;;;;14.97;93.38;100923.19;697958;28;1252;-54
2021/09/27 00:39:30;;;;;;;12.23;11.02;;;;;;;14.95;93.57;100919.75;696316;28;3750;-54
2021/09/27 00:39:50;;;;;;;12.10;10.80;;;;;;;14.94;93.73;100917.13;697108;28;1141;-55
2021/09/27 00:40:18;;;;;;;12.47;11.13;;;;;;;14.93;93.70;100920.66;697873;28;1419;-55
2021/09/27 00:40:42;;;;;;;13.32;11.88;;;;;;;14.96;93.46;100926.72;696669;28;4786;-54
2021/09/27 00:41:07;;;;;;;12.70;11.40;;;;;;;14.97;93.21;100923.19;696667;28;1170;-55
2021/09/27 00:41:27;;;;;;;12.52;11.23;;;;;;;14.96;93.32;100921.44;697429;28;1369;-52
2021/09/27 00:41:48;;;;;;;11.80;10.60;;;;;;;14.96;93.35;100920.59;697015;28;1064;-56
2021/09/27 00:42:08;;;;;;;12.80;11.10;;;;;;;14.98;93.59;100918.78;697574;28;1858;-56
2021/09/27 00:42:28;;;;;;;14.43;12.13;;;;;;;14.93;93.87;100918.03;698379;28;3584;-57
2021/09/27 00:42:49;;;;;;;12.67;10.97;;;;;;;14.98;93.22;100929.31;696723;28;3481;-57
2021/09/27 00:43:11;;;;;;;12.60;10.98;;;;;;;14.97;93.28;100914.44;696717;28;1332;-55
2021/09/27 00:43:36;;;;;;;12.15;10.95;;;;;;;14.98;93.24;100922.31;694265;28;4364;-55
2021/09/27 00:43:57;;;;;;;12.43;10.88;;;;;;;14.97;93.20;100923.19;694503;28;1257;-53
2021/09/27 00:44:17;;;;;;;11.60;10.40;;;;;;;15.05;92.30;100924.81;694554;28;1099;-54
2021/09/27 00:44:38;;;;;;;11.40;10.20;;;;;;;15.14;91.85;100924.63;693594;28;1245;-55
2021/09/27 00:44:58;;;;;;;12.00;10.80;;;;;;;15.14;92.39;100919.38;694422;28;1696;-56
2021/09/27 00:45:23;;;;;;;12.50;11.20;;;;;;;15.07;92.85;100923.03;694058;28;1424;-56
2021/09/27 00:45:48;;;;;;;12.50;11.25;;;;;;;15.07;92.74;100923.03;693733;28;1095;-54
2021/09/27 00:46:12;;;;;;;13.55;11.10;;;;;;;15.06;92.82;100918.66;693561;28;3423;-54
2021/09/27 00:46:33;;;;;;;12.75;11.00;;;;;;;15.03;93.23;100918.72;696814;28;5628;-53
2021/09/27 00:46:54;;;;;;;12.27;10.83;;;;;;;14.99;93.54;100920.53;697013;28;1210;-56
2021/09/27 00:47:14;;;;;;;13.13;11.03;;;;;;;15.02;92.81;100919.59;697548;28;1383;-53
2021/09/27 00:47:35;;;;;;;12.00;10.43;;;;;;;15.00;93.42;100917.00;696990;28;1653;-54
2021/09/27 00:47:55;;;;;;;12.38;10.95;;;;;;;14.96;93.74;100921.44;698034;28;1016;-53
2021/09/27 00:48:16;;;;;;;12.30;10.98;;;;;;;14.95;93.31;100917.09;696961;28;1134;-53
2021/09/27 00:48:37;;;;;;;12.03;10.73;;;;;;;14.98;93.28;100916.16;697631;28;1320;-56
2021/09/27 00:48:59;;;;;;;12.57;11.27;;;;;;;14.94;93.70;100906.59;697890;28;1138;-56
2021/09/27 00:49:19;;;;;;;12.63;11.32;;;;;;;14.96;93.10;100916.19;693235;28;5048;-57
2021/09/27 00:49:40;;;;;;;13.45;11.30;;;;;;;14.98;93.47;100918.78;690741;28;1351;-52
2021/09/27 00:50:00;;;;;;;13.27;11.43;;;;;;;14.92;93.67;100919.78;691764;28;1309;-56
2021/09/27 00:50:27;;;;;;;12.95;10.98;;;;;;;15.00;92.92;100913.53;692095;28;726;-57
2021/09/27 00:50:51;;;;;;;13.13;10.60;;;;;;;15.01;93.13;100917.88;693614;28;1317;-53
2021/09/27 00:51:34;;;;;;;12.75;10.80;;;;;;;14.95;93.30;100909.22;696279;28;982;-52
2021/09/27 00:51:55;;;;;;;12.35;10.60;;;;;;;15.02;92.78;100919.59;697624;28;1531;-56
2021/09/27 00:52:16;;;;;;;11.63;10.37;;;;;;;15.05;92.91;100914.28;696950;28;4326;-52
2021/09/27 00:52:37;;;;;;;12.13;10.85;;;;;;;15.03;92.74;100914.31;696894;28;3836;-52
2021/09/27 00:53:01;;;;;;;12.05;10.85;;;;;;;15.00;93.24;100910.88;696485;28;1427;-55
2021/09/27 00:53:35;;;;;;;12.45;11.15;;;;;;;14.96;93.39;100910.91;696684;28;1035;-54
2021/09/27 00:53:59;;;;;;;12.10;10.90;;;;;;;14.96;93.30;100904.78;697253;28;1050;-55
2021/09/27 00:54:23;;;;;;;12.48;11.18;;;;;;;14.95;93.23;100913.59;695966;28;1130;-52
2021/09/27 00:54:45;;;;;;;12.30;11.00;;;;;;;14.92;93.05;100898.72;695473;28;1301;-54
2021/09/27 00:55:09;;;;;;;11.60;10.40;;;;;;;14.94;92.80;100904.84;697729;28;1118;-51
2021/09/27 00:55:30;;;;;;;11.90;10.70;;;;;;;14.93;93.62;100905.72;694152;28;4406;-53
2021/09/27 00:55:53;;;;;;;12.80;11.50;;;;;;;14.91;93.29;100906.63;693780;28;1556;-54
2021/09/27 00:56:24;;;;;;;13.02;11.70;;;;;;;14.90;92.99;100903.16;694644;28;1430;-53
2021/09/27 00:56:52;;;;;;;12.90;10.80;;;;;;;15.00;92.58;100906.47;694169;28;1387;-52
2021/09/27 00:57:17;;;;;;;11.82;10.63;;;;;;;14.95;92.90;100897.78;694801;28;1273;-55
2021/09/27 00:57:38;;;;;;;11.70;10.50;;;;;;;14.97;92.80;100907.41;694178;28;1786;-56
2021/09/27 00:57:58;;;;;;;11.32;10.23;;;;;;;15.03;92.24;100906.41;694230;28;1242;-53
2021/09/27 00:58:20;;;;;;;11.80;10.57;;;;;;;15.08;91.90;100901.94;693992;28;5019;-57
2021/09/27 00:58:43;;;;;;;11.93;10.63;;;;;;;15.04;93.09;100905.53;693665;28;3811;-52
2021/09/27 00:59:03;;;;;;;12.38;11.07;;;;;;;15.00;92.91;100901.22;694191;28;1246;-54
2021/09/27 00:59:25;;;;;;;12.50;11.20;;;;;;;14.99;92.65;100899.47;694504;28;1417;-55
2021/09/27 00:59:49;;;;;;;12.23;10.88;;;;;;;14.97;92.83;100902.13;694611;28;988;-54
2021/09/27 01:00:13;;;;;;;13.38;11.02;;;;;;;14.89;93.41;100901.41;694387;28;1078;-52
2021/09/27 01:00:33;;;;;;;12.82;11.30;;;;;;;14.85;93.77;100899.72;694533;28;1482;-52
2021/09/27 01:00:54;;;;;;;12.87;11.50;;;;;;;14.84;93.71;100902.41;694588;28;987;-53
2021/09/27 01:01:16;;;;;;;13.15;11.75;;;;;;;14.81;93.81;100901.56;694863;28;4410;-55
2021/09/27 01:01:36;;;;;;;13.10;11.70;;;;;;;14.82;93.28;100895.38;696658;28;4029;-53
2021/09/27 01:01:57;;;;;;;12.57;11.23;;;;;;;14.88;92.96;100904.06;696834;28;1518;-52
2021/09/27 01:02:17;;;;;;;12.15;10.85;;;;;;;14.90;92.68;100897.88;697307;28;1520;-52
2021/09/27 01:02:38;;;;;;;11.67;10.47;;;;;;;14.98;92.38;100901.25;696454;28;1270;-52
2021/09/27 01:02:58;;;;;;;12.00;10.70;;;;;;;15.02;92.03;100898.53;698318;28;1705;-53
2021/09/27 01:03:21;;;;;;;11.67;10.47;;;;;;;15.05;91.98;100903.75;697728;28;1081;-53
2021/09/27 01:03:42;;;;;;;12.85;10.57;;;;;;;15.01;92.14;100897.69;697505;28;1062;-56
2021/09/27 01:04:04;;;;;;;12.32;10.60;;;;;;;14.96;92.26;100899.53;698520;28;1121;-55
2021/09/27 01:04:24;;;;;;;13.20;11.27;;;;;;;14.91;92.76;100893.47;696693;28;4312;-54
2021/09/27 01:04:45;;;;;;;14.43;11.23;;;;;;;14.87;92.99;100890.06;693476;28;3615;-56
2021/09/27 01:05:09;;;;;;;14.20;11.20;;;;;;;14.91;92.50;100901.38;697125;28;1473;-52
2021/09/27 01:05:31;;;;;;;11.93;10.48;;;;;;;14.97;91.94;100902.13;695853;28;1221;-55
2021/09/27 01:06:26;;;;;;;11.55;10.25;;;;;;;14.98;92.54;100895.97;696992;28;1241;-52
2021/09/27 01:07:12;;;;;;;13.65;10.60;;;;;;;14.94;92.36;100901.34;697014;28;1376;-52
2021/09/27 01:07:45;;;;;;;12.50;11.20;;;;;;;14.98;92.63;100903.00;695451;28;5175;-52
2021/09/27 01:08:16;;;;;;;12.52;10.88;;;;;;;15.00;92.88;100903.00;696447;28;2379;-54
2021/09/27 01:08:40;;;;;;;12.45;10.95;;;;;;;14.98;92.19;100900.34;696140;28;1287;-52
2021/09/27 01:09:31;;;;;;;11.70;10.45;;;;;;;15.12;91.56;100900.97;696341;28;1459;-52
2021/09/27 01:10:06;;;;;;;11.55;10.30;;;;;;;15.22;91.06;100895.53;694534;28;1228;-51
2021/09/27 01:11:01;;;;;;;11.70;10.45;;;;;;;15.23;90.72;100903.41;694142;28;4334;-52
2021/09/27 01:11:34;;;;;;;11.98;10.77;;;;;;;15.17;91.01;100903.50;695667;28;1096;-51
2021/09/27 01:12:03;;;;;;;12.10;10.90;;;;;;;15.13;91.60;100897.44;696236;28;1168;-55
2021/09/27 01:13:01;;;;;;;12.43;11.13;;;;;;;15.11;91.68;100901.88;696325;28;1309;-52
2021/09/27 01:13:43;;;;;;;13.65;11.82;;;;;;;14.97;93.21;100907.41;696410;28;4536;-51
2021/09/27 01:14:11;;;;;;;13.98;11.13;;;;;;;14.96;92.19;100905.66;696676;28;3181;-53
2021/09/27 01:14:47;;;;;;;12.40;11.00;;;;;;;15.00;92.13;100903.84;696746;28;1117;-51
2021/09/27 01:15:34;;;;;;;13.05;11.25;;;;;;;14.91;93.04;100902.25;697374;28;1572;-52
2021/09/27 01:15:55;;;;;;;12.95;11.57;;;;;;;14.85;93.44;100899.72;697086;28;1165;-55
2021/09/27 01:16:47;;;;;;;13.63;12.20;;;;;;;14.82;93.53;100902.44;696751;28;4684;-54
2021/09/27 01:17:37;;;;;;;13.25;11.45;;;;;;;14.87;93.47;100905.84;689057;28;3929;-53
2021/09/27 01:18:03;;;;;;;13.25;11.80;;;;;;;14.85;93.60;100899.72;688853;28;1458;-51
2021/09/27 01:18:39;;;;;;;12.90;11.55;;;;;;;14.89;93.36;100905.81;694872;28;1993;-55
2021/09/27 01:19:37;;;;;;;13.07;11.68;;;;;;;14.82;94.06;100902.44;694640;28;1710;-53
2021/09/27 01:20:07;;;;;;;13.35;11.50;;;;;;;14.73;94.53;100902.59;694265;28;4900;-55
2021/09/27 01:21:01;;;;;;;13.25;11.75;;;;;;;14.69;94.87;100903.53;694346;28;3680;-52
2021/09/27 01:21:41;;;;;;;13.82;12.32;;;;;;;14.64;95.58;100904.50;694861;28;1669;-52
2021/09/27 01:22:04;;;;;;;13.60;12.18;;;;;;;14.64;95.11;100904.50;694968;28;1305;-52
2021/09/27 01:23:02;;;;;;;14.57;12.20;;;;;;;14.66;95.19;100895.72;696397;28;4424;-55
2021/09/27 01:23:53;;;;;;;14.65;12.80;;;;;;;14.64;95.07;100901.00;697109;28;3890;-55
2021/09/27 01:24:54;;;;;;;13.10;11.65;;;;;;;14.69;94.95;100898.28;694413;28;1555;-52
2021/09/27 01:25:32;;;;;;;13.35;11.57;;;;;;;14.74;94.12;100904.31;695395;28;4360;-55
2021/09/27 01:26:30;;;;;;;12.45;11.15;;;;;;;14.82;93.88;100895.38;696191;28;1715;-54
2021/09/27 01:27:02;;;;;;;12.90;11.32;;;;;;;14.75;94.08;100893.78;695969;28;4232;-56
2021/09/27 01:27:44;;;;;;;13.18;11.63;;;;;;;14.73;93.91;100897.31;697431;28;2280;-53
2021/09/27 01:28:49;;;;;;;12.38;11.07;;;;;;;14.82;92.89;100898.03;697409;28;1267;-52
2021/09/27 01:29:28;;;;;;;12.75;11.45;;;;;;;14.80;93.71;100893.69;682141;28;4931;-54
2021/09/27 01:30:17;;;;;;;13.18;11.77;;;;;;;14.78;93.94;100892.84;693960;28;3542;-53
2021/09/27 01:31:00;;;;;;;13.10;11.68;;;;;;;14.69;94.68;100893.00;688988;28;1998;-51
2021/09/27 01:31:52;;;;;;;13.43;11.73;;;;;;;14.72;93.71;100888.56;693812;28;1563;-56
2021/09/27 01:32:23;;;;;;;13.45;11.00;;;;;;;14.86;92.95;100893.56;694078;28;1303;-54
2021/09/27 01:32:47;;;;;;;13.57;11.32;;;;;;;14.81;93.63;100890.16;693335;28;1356;-53
2021/09/27 01:33:16;;;;;;;12.88;11.43;;;;;;;14.85;92.48;100886.56;694095;28;3996;-55
2021/09/27 01:33:44;;;;;;;13.18;11.23;;;;;;;14.82;93.41;100889.28;694055;28;1352;-53
2021/09/27 01:34:16;;;;;;;14.57;12.18;;;;;;;14.78;93.50;100884.97;693302;28;1580;-52
2021/09/27 01:34:42;;;;;;;13.20;11.80;;;;;;;14.80;93.25;100888.41;696647;28;4768;-52
2021/09/27 01:35:12;;;;;;;12.52;11.23;;;;;;;14.81;92.83;100880.53;697165;28;1473;-53
2021/09/27 01:36:01;;;;;;;12.18;10.88;;;;;;;14.81;93.50;100879.63;697474;28;1396;-53
2021/09/27 01:36:59;;;;;;;13.75;11.45;;;;;;;14.68;94.44;100880.78;697955;28;4426;-53
2021/09/27 01:37:51;;;;;;;13.48;11.80;;;;;;;14.66;93.94;100888.66;685296;28;4480;-56
2021/09/27 01:38:18;;;;;;;12.73;11.32;;;;;;;14.75;93.28;100885.88;685233;28;1530;-52
2021/09/27 01:39:15;;;;;;;11.90;10.65;;;;;;;14.82;92.68;100884.00;685879;28;1812;-57
2021/09/27 01:39:52;;;;;;;13.25;11.85;;;;;;;14.76;93.12;100885.00;690514;28;4179;-55
2021/09/27 01:40:25;;;;;;;12.52;10.90;;;;;;;14.79;92.62;100882.28;692762;28;4627;-56
2021/09/27 01:41:04;;;;;;;12.40;11.10;;;;;;;14.76;93.43;100890.25;697769;28;1224;-52
2021/09/27 01:41:57;;;;;;;13.38;11.98;;;;;;;14.62;94.33;100885.25;698095;28;1583;-55
2021/09/27 01:42:27;;;;;;;13.93;11.88;;;;;;;14.59;94.77;100887.03;697848;28;1912;-54
2021/09/27 01:42:57;;;;;;;15.10;12.40;;;;;;;14.56;94.33;100877.41;697708;28;4171;-52
2021/09/27 01:43:26;;;;;;;13.82;12.10;;;;;;;14.58;94.61;100878.28;697735;28;4567;-53
2021/09/27 01:44:12;;;;;;;14.15;12.20;;;;;;;14.56;95.07;100877.41;697960;28;1537;-54
2021/09/27 01:44:56;;;;;;;14.38;12.10;;;;;;;14.58;94.26;100877.38;687257;28;1631;-54
2021/09/27 01:45:27;;;;;;;14.35;11.82;;;;;;;14.59;94.65;100874.75;698692;28;1192;-53
2021/09/27 01:46:13;;;;;;;13.40;11.75;;;;;;;14.57;94.15;100873.91;697401;28;4304;-52
2021/09/27 01:46:54;;;;;;;12.18;10.90;;;;;;;14.59;94.45;100869.50;697159;28;4920;-52
2021/09/27 01:47:24;;;;;;;14.55;11.95;;;;;;;14.56;94.73;100874.78;697992;28;1141;-54
2021/09/27 01:47:56;;;;;;;13.77;11.50;;;;;;;14.59;94.05;100874.75;697411;28;1442;-55
2021/09/27 01:48:21;;;;;;;12.30;10.98;;;;;;;14.67;93.42;100869.38;698011;28;1289;-52
2021/09/27 01:49:08;;;;;;;11.98;10.77;;;;;;;14.65;93.55;100871.16;697515;28;3412;-52
2021/09/27 01:49:39;;;;;;;13.55;11.20;;;;;;;14.56;94.37;100874.78;697192;28;4589;-55
2021/09/27 01:50:02;;;;;;;14.32;12.20;;;;;;;14.55;94.53;100877.44;697652;28;1502;-52
2021/09/27 01:50:35;;;;;;;13.07;11.68;;;;;;;14.53;94.12;100874.84;697647;28;1122;-54
2021/09/27 01:51:08;;;;;;;13.40;12.00;;;;;;;14.69;93.12;100880.75;698164;28;1882;-54
2021/09/27 01:51:44;;;;;;;13.10;10.88;;;;;;;14.72;92.91;100875.41;697692;28;1241;-54
2021/09/27 01:52:13;;;;;;;12.70;11.13;;;;;;;14.66;93.43;100875.50;696725;28;3635;-55
2021/09/27 01:52:39;;;;;;;12.48;11.18;;;;;;;14.60;93.47;100876.47;697111;28;5182;-52
2021/09/27 01:53:07;;;;;;;12.40;11.13;;;;;;;14.64;92.95;100877.31;697608;28;1413;-53
2021/09/27 01:53:37;;;;;;;12.40;11.10;;;;;;;14.69;92.68;100880.75;698238;28;1194;-52
2021/09/27 01:54:20;;;;;;;12.68;11.38;;;;;;;14.66;93.30;100879.91;697750;28;1063;-55
2021/09/27 01:54:47;;;;;;;12.98;11.57;;;;;;;14.66;93.16;100883.41;696997;28;1506;-55
2021/09/27 01:55:30;;;;;;;13.00;11.52;;;;;;;14.69;93.31;100880.75;697525;28;3302;-55
2021/09/27 01:56:05;;;;;;;12.05;10.73;;;;;;;14.72;93.44;100879.81;697285;28;4844;-55
2021/09/27 01:56:37;;;;;;;13.30;11.95;;;;;;;14.67;93.42;100884.28;697529;28;1205;-52
2021/09/27 01:57:08;;;;;;;12.02;10.80;;;;;;;14.69;92.89;100883.38;697345;28;1086;-53
2021/09/27 01:57:45;;;;;;;12.70;11.07;;;;;;;14.66;93.55;100880.78;697648;28;1608;-53
2021/09/27 01:58:19;;;;;;;11.98;10.65;;;;;;;14.81;92.23;100877.00;697142;28;1130;-54
2021/09/27 01:58:58;;;;;;;12.80;11.50;;;;;;;14.82;92.65;100876.09;696841;28;4917;-53
2021/09/27 01:59:40;;;;;;;12.70;11.40;;;;;;;14.76;93.38;100877.09;697903;28;1386;-52
2021/09/27 02:00:30;;;;;;;13.45;11.57;;;;;;;14.71;94.19;100878.94;697670;28;2221;-56
2021/09/27 02:01:09;;;;;;;13.43;11.80;;;;;;;14.62;94.77;100874.72;692332;28;2348;-52
2021/09/27 02:01:40;;;;;;;13.18;11.77;;;;;;;14.61;94.37;100878.22;696320;28;4759;-51
2021/09/27 02:02:15;;;;;;;13.80;12.15;;;;;;;14.60;94.93;100873.84;697519;28;2077;-56
2021/09/27 02:03:00;;;;;;;13.85;12.40;;;;;;;14.58;95.23;100880.91;696029;28;1389;-57
2021/09/27 02:03:39;;;;;;;13.63;12.18;;;;;;;14.58;94.95;100887.91;699357;28;1298;-55
2021/09/27 02:04:07;;;;;;;13.32;11.80;;;;;;;14.57;94.87;100875.66;698203;28;1411;-53
2021/09/27 02:04:52;;;;;;;14.07;11.88;;;;;;;14.51;95.56;100878.38;697029;28;4709;-55
2021/09/27 02:05:18;;;;;;;14.20;12.45;;;;;;;14.48;95.31;100882.81;699938;28;1101;-52
2021/09/27 02:05:58;;;;;;;13.55;11.80;;;;;;;14.55;94.24;100878.34;699918;28;1162;-54
2021/09/27 02:06:39;;;;;;;12.60;11.23;;;;;;;14.59;94.33;100877.38;700054;28;1129;-57
2021/09/27 02:07:01;;;;;;;13.30;11.32;;;;;;;14.55;95.36;100880.06;700001;28;1286;-52
2021/09/27 02:07:22;;;;;;;13.95;11.82;;;;;;;14.54;94.87;100871.31;696519;28;4538;-54
2021/09/27 02:07:57;;;;;;;13.80;11.67;;;;;;;14.52;95.25;100877.50;697697;28;1126;-53
2021/09/27 02:08:45;;;;;;;13.25;11.85;;;;;;;14.50;95.50;100872.28;695495;28;3932;-53
2021/09/27 02:09:12;;;;;;;14.77;12.00;;;;;;;14.47;95.95;100875.81;697342;28;1069;-54